Time;durP1;ratioP1;P1;durP2;ratioP2;P2;SDS_P1;SDS_P2;PMS_P1;PMS_P2;Temp;Humidity;BMP_temperature;BMP_pressure;BME280_temperature;BME280_humidity;BME280_pressure;Samples;Min_cycle;Max_cycle;Signal;HPM_P1;HPM_P2
2024/01/20 00:02:03;;;;;;;2.30;1.60;;;;;;;20.40;29.29;100905.58;103477;1288;62197;-80
2024/01/20 00:04:29;;;;;;;3.90;2.00;;;;;;;20.40;29.29;100888.08;103262;1285;62059;-80
2024/01/20 00:06:55;;;;;;;3.50;1.80;;;;;;;20.40;29.14;100884.36;103107;1285;62237;-81
2024/01/20 00:09:21;;;;;;;3.80;1.80;;;;;;;20.40;29.23;100891.31;103317;1291;62519;-80
2024/01/20 00:11:47;;;;;;;3.10;1.70;;;;;;;20.40;29.18;100897.94;103135;1290;73792;-81
2024/01/20 00:14:13;;;;;;;3.00;1.90;;;;;;;20.40;29.17;100903.81;103138;1291;62241;-81
2024/01/20 00:16:39;;;;;;;3.20;1.80;;;;;;;20.40;29.10;100909.55;103239;1289;62254;-80
2024/01/20 00:19:05;;;;;;;3.10;1.80;;;;;;;20.40;29.10;100918.13;103077;1291;62117;-80
2024/01/20 00:21:31;;;;;;;4.40;1.80;;;;;;;20.40;29.05;100918.83;103221;1291;62281;-80
2024/01/20 00:23:56;;;;;;;2.70;1.80;;;;;;;20.40;28.98;100919.72;103167;1286;62835;-80
2024/01/20 00:26:22;;;;;;;3.20;1.80;;;;;;;20.40;28.99;100910.97;103062;1293;63411;-81
2024/01/20 00:28:48;;;;;;;3.10;1.80;;;;;;;20.40;28.95;100914.20;103193;1286;62449;-80
2024/01/20 00:31:13;;;;;;;3.60;2.00;;;;;;;20.40;28.94;100935.10;103183;1290;62229;-80
2024/01/20 00:33:39;;;;;;;4.10;1.90;;;;;;;20.40;28.92;100941.00;103328;1292;62245;-81
2024/01/20 00:36:05;;;;;;;2.30;1.50;;;;;;;20.40;28.87;100939.36;103890;1285;63401;-81
2024/01/20 00:38:32;;;;;;;3.20;1.90;;;;;;;20.40;28.86;100941.73;103523;1283;62108;-80
2024/01/20 00:40:59;;;;;;;3.50;1.80;;;;;;;20.40;28.89;100940.49;103556;1283;62180;-80
2024/01/20 00:43:25;;;;;;;2.70;1.70;;;;;;;20.40;28.80;100942.81;103898;1286;63455;-79
2024/01/20 00:45:51;;;;;;;2.90;1.80;;;;;;;20.39;28.78;100945.16;103571;1286;62104;-81
2024/01/20 00:48:17;;;;;;;2.90;1.90;;;;;;;20.40;28.75;100944.41;103541;1283;62165;-81
2024/01/20 00:50:42;;;;;;;2.90;1.70;;;;;;;20.40;28.69;100944.58;103542;1283;62251;-82
2024/01/20 00:53:08;;;;;;;2.80;1.70;;;;;;;20.40;28.77;100938.86;103757;1283;62095;-80
2024/01/20 00:55:34;;;;;;;3.60;1.80;;;;;;;20.39;28.63;100937.82;103521;1286;62193;-81
2024/01/20 00:57:59;;;;;;;3.00;1.80;;;;;;;20.40;28.57;100931.73;103378;1283;62277;-81
2024/01/20 01:00:25;;;;;;;3.50;1.90;;;;;;;20.40;28.67;100918.83;103580;1286;62078;-81
2024/01/20 01:02:51;;;;;;;3.20;1.80;;;;;;;20.40;28.54;100920.80;103750;1286;62178;-80
2024/01/20 01:05:16;;;;;;;2.70;1.70;;;;;;;20.41;28.60;100928.45;103577;1283;62490;-81
2024/01/20 01:07:42;;;;;;;2.70;1.80;;;;;;;20.40;28.45;100935.45;103526;1286;62200;-81
2024/01/20 01:10:08;;;;;;;2.90;2.00;;;;;;;20.40;28.59;100950.28;103534;1283;62816;-80
2024/01/20 01:12:34;;;;;;;3.50;2.10;;;;;;;20.39;28.45;100954.09;103665;1283;62686;-79
2024/01/20 01:15:01;;;;;;;3.30;2.00;;;;;;;20.40;28.52;100960.14;103559;1283;62091;-80
2024/01/20 01:17:27;;;;;;;3.90;1.90;;;;;;;20.40;28.60;100967.30;103624;1283;62280;-80
2024/01/20 01:19:52;;;;;;;4.10;2.00;;;;;;;20.40;28.39;100964.23;103554;1286;62265;-81
2024/01/20 01:22:18;;;;;;;3.20;2.00;;;;;;;20.41;28.51;100957.21;103733;1281;62203;-81
2024/01/20 01:24:44;;;;;;;5.00;2.20;;;;;;;20.41;28.45;100960.43;103542;1289;62248;-81
2024/01/20 01:27:10;;;;;;;3.30;2.00;;;;;;;20.40;28.48;100975.85;103522;1282;62230;-80
2024/01/20 01:29:36;;;;;;;3.50;2.00;;;;;;;20.40;28.50;100991.23;103505;1288;63677;-80
2024/01/20 01:32:02;;;;;;;3.30;2.00;;;;;;;20.40;28.52;101002.49;103737;1287;63378;-79
2024/01/20 01:34:28;;;;;;;3.30;1.90;;;;;;;20.40;28.41;101013.74;103554;1286;63238;-81
2024/01/20 01:36:54;;;;;;;3.00;1.90;;;;;;;20.40;28.47;101020.54;103517;1283;62212;-81
2024/01/20 01:39:21;;;;;;;2.90;1.70;;;;;;;20.41;28.59;101024.27;103539;1283;62557;-80
2024/01/20 01:41:46;;;;;;;3.00;1.80;;;;;;;20.41;28.46;101029.27;103564;1288;62201;-81
2024/01/20 01:44:12;;;;;;;3.10;1.80;;;;;;;20.41;28.42;101038.39;103496;1283;62216;-80
2024/01/20 01:46:38;;;;;;;5.50;1.90;;;;;;;20.41;28.37;101043.56;103405;1288;62950;-80
2024/01/20 01:49:04;;;;;;;2.70;1.80;;;;;;;20.41;28.56;101054.65;103798;1283;62066;-80
2024/01/20 01:51:30;;;;;;;3.00;1.90;;;;;;;20.41;28.38;101057.32;103345;1288;62172;-80
2024/01/20 01:53:56;;;;;;;2.50;1.60;;;;;;;20.41;28.46;101058.21;103526;1286;62653;-81
2024/01/20 01:56:22;;;;;;;3.20;1.90;;;;;;;20.41;28.30;101065.74;103624;1288;62190;-80
2024/01/20 01:58:48;;;;;;;3.70;1.90;;;;;;;20.41;28.38;101063.41;103665;1286;62097;-81
2024/01/20 02:01:13;;;;;;;3.60;2.00;;;;;;;20.41;28.29;101064.29;103518;1288;62256;-80
2024/01/20 02:03:39;;;;;;;2.60;1.70;;;;;;;20.40;28.26;101068.44;103635;1286;62267;-79
2024/01/20 02:06:06;;;;;;;2.80;1.80;;;;;;;20.41;28.28;101077.70;103679;1285;76237;-80
2024/01/20 02:08:31;;;;;;;2.50;1.70;;;;;;;20.41;28.27;101084.11;103373;1288;62200;-81
2024/01/20 02:10:57;;;;;;;2.90;1.80;;;;;;;20.40;28.22;101083.64;103515;1283;62656;-80
2024/01/20 02:13:23;;;;;;;3.40;2.00;;;;;;;20.40;28.18;101081.33;103256;1289;62388;-80
2024/01/20 02:15:49;;;;;;;2.60;1.70;;;;;;;20.40;28.14;101097.21;103725;1283;62256;-81
2024/01/20 02:18:15;;;;;;;3.20;1.90;;;;;;;20.41;28.31;101097.20;103523;1286;85218;-81
2024/01/20 02:20:40;;;;;;;3.20;1.70;;;;;;;20.41;28.11;101087.18;103230;1286;62281;-80
2024/01/20 02:23:06;;;;;;;3.20;1.80;;;;;;;20.40;28.07;101089.03;103473;1286;62248;-80
2024/01/20 02:25:32;;;;;;;2.80;1.70;;;;;;;20.40;28.16;101093.30;103790;1286;63318;-80
2024/01/20 02:27:58;;;;;;;3.00;1.70;;;;;;;20.40;28.14;101095.27;103678;1285;62181;-80
2024/01/20 02:30:24;;;;;;;2.90;1.80;;;;;;;20.40;28.11;101096.35;103526;1288;63227;-80
2024/01/20 02:32:49;;;;;;;2.60;1.70;;;;;;;20.40;28.23;101099.55;103389;1283;64035;-81
2024/01/20 02:35:16;;;;;;;3.50;1.80;;;;;;;20.40;28.05;101102.40;103730;1285;63418;-81
2024/01/20 02:37:41;;;;;;;3.40;1.70;;;;;;;20.40;28.06;101106.91;103680;1281;72492;-81
2024/01/20 02:40:08;;;;;;;3.10;1.90;;;;;;;20.39;28.02;101113.73;103302;1283;62653;-80
2024/01/20 02:42:33;;;;;;;3.00;1.80;;;;;;;20.40;27.94;101129.79;103744;1286;62152;-80
2024/01/20 02:44:59;;;;;;;2.80;1.70;;;;;;;20.39;27.82;101141.45;103536;1283;62193;-79
2024/01/20 02:47:25;;;;;;;2.50;1.80;;;;;;;20.39;27.78;101145.55;103506;1289;62318;-82
2024/01/20 02:49:50;;;;;;;3.20;1.70;;;;;;;20.39;27.91;101159.11;103576;1286;62184;-81
2024/01/20 02:52:16;;;;;;;2.70;1.50;;;;;;;20.40;27.89;101174.11;103621;1288;75251;-80
2024/01/20 02:54:42;;;;;;;2.80;1.70;;;;;;;20.40;27.98;101178.56;103678;1285;62216;-80
2024/01/20 02:57:07;;;;;;;2.80;1.70;;;;;;;20.41;27.76;101183.73;103550;1286;62321;-80
2024/01/20 02:59:33;;;;;;;2.60;1.60;;;;;;;20.40;27.78;101185.02;103670;1285;62229;-81
2024/01/20 03:02:01;;;;;;;2.30;1.70;;;;;;;20.40;27.78;101181.27;103946;1283;62758;-81
2024/01/20 03:04:28;;;;;;;2.70;1.50;;;;;;;20.40;27.74;101179.30;103398;1286;62222;-80
2024/01/20 03:06:53;;;;;;;2.60;1.60;;;;;;;20.40;27.86;101177.70;103377;1286;62243;-80
2024/01/20 03:09:19;;;;;;;3.00;1.70;;;;;;;20.41;27.79;101183.55;103350;1285;62236;-80
2024/01/20 03:11:45;;;;;;;3.10;1.80;;;;;;;20.40;27.81;101189.65;103765;1283;62246;-81
2024/01/20 03:14:11;;;;;;;2.40;1.60;;;;;;;20.40;27.85;101192.70;103548;1283;62063;-80
2024/01/20 03:16:37;;;;;;;2.70;1.60;;;;;;;20.40;27.79;101194.31;103495;1283;62168;-80
2024/01/20 03:19:03;;;;;;;2.40;1.70;;;;;;;20.40;27.79;101197.00;103605;1286;62782;-81
2024/01/20 03:21:29;;;;;;;2.80;1.40;;;;;;;20.40;27.76;101203.41;103736;1286;63206;-80
2024/01/20 03:23:55;;;;;;;3.10;1.80;;;;;;;20.40;27.75;101205.41;103186;1283;62236;-81
2024/01/20 03:26:21;;;;;;;2.00;1.50;;;;;;;20.39;27.78;101203.29;103550;1286;63235;-80
2024/01/20 03:28:47;;;;;;;2.60;1.70;;;;;;;20.40;27.67;101202.91;103646;1283;62177;-80
2024/01/20 03:31:12;;;;;;;2.70;1.50;;;;;;;20.39;27.66;101212.59;103527;1288;62110;-81
2024/01/20 03:33:38;;;;;;;2.80;1.60;;;;;;;20.39;27.75;101216.50;103217;1286;62210;-80
2024/01/20 03:36:04;;;;;;;2.70;1.60;;;;;;;20.39;27.71;101220.09;103680;1285;76157;-80
2024/01/20 03:38:30;;;;;;;2.70;1.60;;;;;;;20.39;27.50;101221.55;103434;1288;62236;-80
2024/01/20 03:40:55;;;;;;;2.20;1.50;;;;;;;20.39;27.49;101226.16;103650;1283;62181;-81
2024/01/20 03:43:21;;;;;;;2.50;1.50;;;;;;;20.39;27.43;101236.55;103366;1289;63357;-80
2024/01/20 03:45:47;;;;;;;2.60;1.50;;;;;;;20.39;27.41;101243.90;103625;1283;62970;-80
2024/01/20 03:48:13;;;;;;;2.20;1.40;;;;;;;20.39;27.40;101248.52;103546;1286;63064;-81
2024/01/20 03:50:38;;;;;;;2.50;1.70;;;;;;;20.39;27.42;101241.03;103318;1286;62197;-81
2024/01/20 03:53:05;;;;;;;2.10;1.40;;;;;;;20.39;27.51;101236.39;103965;1286;62191;-78
2024/01/20 03:55:31;;;;;;;2.00;1.40;;;;;;;20.39;27.41;101237.81;103246;1289;62247;-80
2024/01/20 03:57:57;;;;;;;2.70;1.60;;;;;;;20.39;27.49;101237.98;103357;1286;63313;-80
2024/01/20 04:00:23;;;;;;;2.10;1.40;;;;;;;20.39;27.46;101249.77;103848;1283;62229;-80
2024/01/20 04:02:49;;;;;;;2.40;1.60;;;;;;;20.39;27.42;101257.08;103525;1286;62121;-80
2024/01/20 04:05:15;;;;;;;2.40;1.50;;;;;;;20.40;27.45;101267.80;103533;1289;64023;-80
2024/01/20 04:07:40;;;;;;;2.20;1.50;;;;;;;20.40;27.55;101267.25;103748;1285;62213;-80
2024/01/20 04:10:07;;;;;;;2.60;1.60;;;;;;;20.40;27.43;101269.73;103755;1285;62180;-80
2024/01/20 04:12:34;;;;;;;2.40;1.50;;;;;;;20.41;27.49;101274.19;103650;1285;62088;-81
2024/01/20 04:15:00;;;;;;;2.30;1.60;;;;;;;20.40;27.46;101275.31;103748;1285;62181;-81
2024/01/20 04:17:25;;;;;;;3.10;1.80;;;;;;;20.40;27.45;101278.15;103313;1289;63360;-81
2024/01/20 04:19:51;;;;;;;2.20;1.50;;;;;;;20.40;27.41;101278.52;103938;1285;62151;-79
2024/01/20 04:22:16;;;;;;;2.70;1.60;;;;;;;20.40;27.42;101284.20;103389;1286;62523;-80
2024/01/20 04:24:42;;;;;;;2.60;1.60;;;;;;;20.40;27.37;101293.87;103720;1287;62199;-81
2024/01/20 04:27:08;;;;;;;2.60;1.60;;;;;;;20.40;27.44;101299.77;103365;1286;62101;-81
2024/01/20 04:29:34;;;;;;;3.00;1.70;;;;;;;20.40;27.47;101305.66;103721;1286;62267;-80
2024/01/20 04:31:59;;;;;;;2.60;1.40;;;;;;;20.41;27.37;101311.55;103729;1286;62248;-80
2024/01/20 04:34:25;;;;;;;3.20;1.70;;;;;;;20.41;27.46;101313.83;103530;1287;62312;-80
2024/01/20 04:36:51;;;;;;;2.70;1.60;;;;;;;20.41;27.40;101318.66;103697;1286;63270;-81
2024/01/20 04:39:16;;;;;;;2.80;1.60;;;;;;;20.41;27.54;101330.46;103657;1288;62829;-79
2024/01/20 04:41:42;;;;;;;2.50;1.70;;;;;;;20.41;27.37;101340.12;103717;1286;63542;-80
2024/01/20 04:44:08;;;;;;;3.00;1.80;;;;;;;20.41;27.50;101352.46;103355;1281;75166;-81
2024/01/20 04:46:33;;;;;;;2.30;1.50;;;;;;;20.41;27.36;101367.30;103489;1289;62161;-80
2024/01/20 04:49:00;;;;;;;3.10;1.70;;;;;;;20.41;27.28;101370.33;103640;1286;62117;-80
2024/01/20 04:51:26;;;;;;;3.00;2.10;;;;;;;20.41;27.36;101371.08;103644;1286;62225;-80
2024/01/20 04:53:51;;;;;;;3.00;1.70;;;;;;;20.41;27.17;101383.40;103535;1286;62142;-81
2024/01/20 04:56:22;;;;;;;2.40;1.60;;;;;;;20.41;27.33;101393.23;103341;1286;62258;-80
2024/01/20 04:58:53;;;;;;;2.20;1.60;;;;;;;20.40;27.31;101397.38;103560;1283;62059;-80
2024/01/20 05:01:19;;;;;;;2.50;1.50;;;;;;;20.41;27.14;101399.86;103550;1287;72600;-80
2024/01/20 05:03:45;;;;;;;3.30;1.70;;;;;;;20.40;27.03;101402.73;103502;1286;62577;-80
2024/01/20 05:06:11;;;;;;;2.50;1.50;;;;;;;20.40;27.10;101400.95;103353;1283;62087;-81
2024/01/20 05:08:37;;;;;;;2.40;1.40;;;;;;;20.40;27.22;101402.23;103842;1284;68315;-80
2024/01/20 05:11:03;;;;;;;2.30;1.60;;;;;;;20.40;27.14;101406.35;103536;1289;62279;-81
2024/01/20 05:13:28;;;;;;;3.10;1.80;;;;;;;20.40;27.07;101404.38;103547;1283;62535;-81
2024/01/20 05:15:54;;;;;;;2.80;1.70;;;;;;;20.40;27.15;101409.93;103586;1289;62191;-79
2024/01/20 05:18:20;;;;;;;2.10;1.50;;;;;;;20.40;27.05;101415.81;103694;1289;62255;-80
2024/01/20 05:20:47;;;;;;;3.60;1.50;;;;;;;20.40;27.14;101417.23;103354;1289;62067;-81
2024/01/20 05:23:13;;;;;;;2.70;1.50;;;;;;;20.40;27.12;101423.33;103656;1285;71458;-80
2024/01/20 05:25:39;;;;;;;2.00;1.50;;;;;;;20.39;27.09;101424.80;103525;1287;62290;-80
2024/01/20 05:28:05;;;;;;;2.50;1.40;;;;;;;20.39;27.22;101426.22;103621;1283;62950;-81
2024/01/20 05:30:30;;;;;;;2.50;1.60;;;;;;;20.40;27.06;101424.23;103505;1283;62280;-81
2024/01/20 05:32:56;;;;;;;2.60;1.30;;;;;;;20.40;27.09;101426.00;103514;1283;63376;-81
2024/01/20 05:35:22;;;;;;;2.00;1.40;;;;;;;20.40;27.03;101431.20;103699;1289;62261;-79
2024/01/20 05:37:48;;;;;;;1.80;1.30;;;;;;;20.40;27.01;101438.33;103745;1286;75261;-81
2024/01/20 05:40:13;;;;;;;1.90;1.40;;;;;;;20.41;26.99;101439.38;103534;1289;62177;-80
2024/01/20 05:42:39;;;;;;;1.90;1.30;;;;;;;20.40;26.97;101436.55;103540;1286;62648;-80
2024/01/20 05:45:08;;;;;;;1.80;1.40;;;;;;;20.39;26.94;101442.11;103614;1283;63049;-80
2024/01/20 05:47:38;;;;;;;2.60;1.40;;;;;;;20.40;26.80;101438.87;103525;1286;75178;-80
2024/01/20 05:50:04;;;;;;;;;;;;;;;20.40;26.83;101439.39;103240;1284;63164;-80
2024/01/20 05:52:30;;;;;;;1.90;1.20;;;;;;;20.37;26.98;101444.39;103586;1289;62203;-80
2024/01/20 05:54:56;;;;;;;2.20;1.40;;;;;;;20.39;26.88;101446.08;103479;1288;62165;-81
2024/01/20 05:57:22;;;;;;;1.90;1.40;;;;;;;20.39;26.87;101447.88;103493;1286;62276;-80
2024/01/20 05:59:47;;;;;;;2.20;1.30;;;;;;;20.39;26.78;101443.23;103502;1282;62232;-81
2024/01/20 06:02:13;;;;;;;2.60;1.40;;;;;;;20.39;26.84;101448.92;103582;1286;62174;-79
2024/01/20 06:04:39;;;;;;;1.60;1.20;;;;;;;20.39;26.67;101452.70;103369;1286;62126;-81
2024/01/20 06:07:04;;;;;;;1.70;1.30;;;;;;;20.39;26.78;101455.90;103553;1283;62277;-80
2024/01/20 06:09:30;;;;;;;2.00;1.30;;;;;;;20.40;26.63;101460.70;103339;1288;62283;-80
2024/01/20 06:11:56;;;;;;;1.90;1.20;;;;;;;20.40;26.71;101465.33;103405;1286;62728;-80
2024/01/20 06:14:22;;;;;;;1.80;1.20;;;;;;;20.40;26.84;101469.62;103754;1282;62190;-80
2024/01/20 06:16:47;;;;;;;2.10;1.30;;;;;;;20.40;26.74;101480.15;103742;1283;63372;-79
2024/01/20 06:19:13;;;;;;;3.10;1.30;;;;;;;20.41;26.81;101486.00;103505;1288;72401;-81
2024/01/20 06:21:39;;;;;;;3.20;1.60;;;;;;;20.41;26.83;101491.02;103739;1287;63321;-80
2024/01/20 06:24:04;;;;;;;2.10;1.40;;;;;;;20.41;26.78;101498.32;103726;1283;62694;-82
2024/01/20 06:26:30;;;;;;;2.40;1.40;;;;;;;20.41;26.73;101499.76;103514;1286;63598;-81
2024/01/20 06:28:56;;;;;;;2.30;1.50;;;;;;;20.41;26.70;101510.48;103540;1286;62155;-80
2024/01/20 06:31:26;;;;;;;2.00;1.20;;;;;;;20.41;26.76;101519.61;103469;1288;62190;-81
2024/01/20 06:33:52;;;;;;;2.80;1.40;;;;;;;20.42;26.69;101524.92;103541;1283;76116;-81
2024/01/20 06:36:21;;;;;;;3.00;1.50;;;;;;;20.41;26.80;101525.67;103407;1286;62153;-80
2024/01/20 06:38:48;;;;;;;2.40;1.30;;;;;;;20.42;26.79;101525.66;103797;1283;63040;-79
2024/01/20 06:41:15;;;;;;;2.50;1.40;;;;;;;20.41;26.83;101530.70;103554;1282;72482;-80
2024/01/20 06:43:40;;;;;;;2.10;1.30;;;;;;;20.41;26.68;101534.64;103511;1287;62280;-80
2024/01/20 06:46:07;;;;;;;3.50;1.70;;;;;;;20.41;26.88;101538.91;103534;1286;62307;-81
2024/01/20 06:48:34;;;;;;;2.90;1.50;;;;;;;20.41;26.90;101546.44;103522;1286;63443;-80
2024/01/20 06:51:01;;;;;;;3.20;1.80;;;;;;;20.41;26.86;101556.10;103394;1283;62339;-79
2024/01/20 06:53:27;;;;;;;2.60;1.60;;;;;;;20.41;26.74;101566.44;103333;1283;75071;-82
2024/01/20 06:55:54;;;;;;;2.40;1.50;;;;;;;20.41;26.72;101571.81;103766;1283;62193;-80
2024/01/20 06:58:20;;;;;;;2.60;1.50;;;;;;;20.41;26.84;101576.48;103344;1283;62296;-80
2024/01/20 07:00:45;;;;;;;3.30;1.60;;;;;;;20.41;26.58;101583.65;103367;1286;62903;-81
2024/01/20 07:03:11;;;;;;;3.20;1.60;;;;;;;20.41;26.72;101591.52;103672;1286;62924;-80
2024/01/20 07:05:37;;;;;;;2.40;1.60;;;;;;;20.40;26.69;101594.58;103341;1283;62770;-81
2024/01/20 07:08:04;;;;;;;3.50;1.90;;;;;;;20.40;26.58;101600.88;103431;1286;62718;-81
2024/01/20 07:10:29;;;;;;;3.10;1.70;;;;;;;20.40;26.62;101612.13;103805;1286;62178;-80
2024/01/20 07:12:55;;;;;;;2.90;1.70;;;;;;;20.40;26.55;101618.74;103675;1285;63443;-80
2024/01/20 07:15:22;;;;;;;2.90;1.60;;;;;;;20.40;26.60;101613.36;103555;1286;62857;-80
2024/01/20 07:17:48;;;;;;;2.50;1.60;;;;;;;20.39;26.58;101617.69;103544;1283;62573;-80
2024/01/20 07:20:14;;;;;;;4.50;1.70;;;;;;;20.40;26.69;101621.58;103658;1286;63579;-80
2024/01/20 07:22:41;;;;;;;3.60;2.00;;;;;;;20.40;26.49;101620.67;103545;1283;62193;-80
2024/01/20 07:25:08;;;;;;;2.90;1.70;;;;;;;20.40;26.55;101621.96;103533;1283;62241;-81
2024/01/20 07:27:34;;;;;;;2.80;1.50;;;;;;;20.39;26.60;101618.95;103565;1283;62202;-80
2024/01/20 07:30:00;;;;;;;2.80;1.70;;;;;;;20.39;26.58;101629.13;103503;1283;63236;-81
2024/01/20 07:32:26;;;;;;;4.20;1.60;;;;;;;20.39;26.54;101634.14;103527;1283;62653;-81
2024/01/20 07:34:51;;;;;;;3.00;1.80;;;;;;;20.40;26.56;101636.27;103502;1287;62135;-80
2024/01/20 07:37:17;;;;;;;3.10;1.70;;;;;;;20.39;26.57;101647.02;103655;1283;62659;-80
2024/01/20 07:39:43;;;;;;;3.60;1.50;;;;;;;20.39;26.65;101660.96;103186;1283;628136;-81
2024/01/20 07:42:10;;;;;;;2.80;1.60;;;;;;;20.39;26.61;101669.54;103667;1285;62207;-80
2024/01/20 07:44:36;;;;;;;2.70;1.60;;;;;;;20.40;26.62;101669.50;103673;1287;72544;-79
2024/01/20 07:47:02;;;;;;;2.80;1.80;;;;;;;20.40;26.65;101673.27;103601;1285;62761;-80
2024/01/20 07:49:28;;;;;;;3.00;1.70;;;;;;;20.39;26.70;101683.30;103534;1283;62252;-80
2024/01/20 07:51:54;;;;;;;3.10;1.70;;;;;;;20.40;26.57;101687.23;103342;1283;62550;-81
2024/01/20 07:54:19;;;;;;;2.60;1.50;;;;;;;20.39;26.57;101685.44;103912;1283;62277;-81
2024/01/20 07:56:46;;;;;;;3.10;1.70;;;;;;;20.40;26.53;101685.61;103501;1283;62219;-81
2024/01/20 07:59:11;;;;;;;4.00;1.70;;;;;;;20.40;26.64;101689.35;103502;1288;62159;-81
2024/01/20 08:01:37;;;;;;;3.10;1.80;;;;;;;20.40;26.57;101685.98;103594;1288;62200;-81
2024/01/20 08:04:03;;;;;;;3.10;1.60;;;;;;;20.40;26.57;101690.05;103748;1283;62187;-81
2024/01/20 08:06:29;;;;;;;2.90;1.50;;;;;;;20.40;26.58;101691.33;103350;1289;62235;-81
2024/01/20 08:08:55;;;;;;;3.40;2.00;;;;;;;20.40;26.53;101694.19;103516;1288;63207;-81
2024/01/20 08:11:21;;;;;;;3.20;1.80;;;;;;;20.40;26.54;101701.34;103433;1283;63249;-79
2024/01/20 08:13:47;;;;;;;3.90;1.90;;;;;;;20.40;26.52;101707.22;103543;1287;62248;-80
2024/01/20 08:16:13;;;;;;;5.00;1.90;;;;;;;20.40;26.36;101710.08;103547;1283;62139;-81
2024/01/20 08:18:38;;;;;;;3.50;1.80;;;;;;;20.40;26.44;101711.88;103184;1287;70240;-81
2024/01/20 08:21:06;;;;;;;3.20;1.80;;;;;;;20.40;26.45;101720.80;103564;1286;62299;-80
2024/01/20 08:23:33;;;;;;;2.80;1.80;;;;;;;20.40;26.27;101720.47;103267;1291;62274;-81
2024/01/20 08:25:59;;;;;;;4.30;1.90;;;;;;;20.40;26.35;101728.34;103665;1281;62792;-81
2024/01/20 08:28:24;;;;;;;2.90;1.70;;;;;;;20.40;26.32;101740.64;103686;1283;62190;-80
2024/01/20 08:30:50;;;;;;;2.50;1.70;;;;;;;20.41;26.28;101746.70;103507;1283;62143;-81
2024/01/20 08:33:16;;;;;;;3.40;1.90;;;;;;;20.40;26.30;101750.48;103547;1286;62219;-80
2024/01/20 08:35:42;;;;;;;3.60;1.80;;;;;;;20.41;26.36;101757.60;103531;1284;63367;-80
2024/01/20 08:38:07;;;;;;;3.50;2.00;;;;;;;20.41;26.23;101759.39;103324;1283;62602;-81
2024/01/20 08:40:33;;;;;;;5.10;1.80;;;;;;;20.41;26.21;101759.38;103397;1289;72455;-81
2024/01/20 08:42:58;;;;;;;5.80;2.10;;;;;;;20.41;26.22;101764.22;103271;1292;62340;-79
2024/01/20 08:45:24;;;;;;;4.00;2.00;;;;;;;20.41;26.30;101768.48;103147;1285;62500;-80
2024/01/20 08:47:50;;;;;;;3.40;1.70;;;;;;;20.41;26.23;101769.00;103488;1288;62524;-80
2024/01/20 08:50:16;;;;;;;3.20;1.90;;;;;;;20.41;26.09;101771.89;103263;1285;62290;-82
2024/01/20 08:52:41;;;;;;;4.00;2.10;;;;;;;20.42;26.11;101774.36;103157;1291;62277;-80
2024/01/20 08:55:07;;;;;;;3.60;1.90;;;;;;;20.42;26.13;101773.11;103170;1291;75266;-81
2024/01/20 08:57:35;;;;;;;3.00;1.90;;;;;;;20.41;26.08;101778.67;103701;1285;62246;-80
2024/01/20 09:00:03;;;;;;;3.50;1.90;;;;;;;20.42;26.12;101776.33;103158;1285;62211;-81
2024/01/20 09:02:28;;;;;;;4.10;1.70;;;;;;;20.41;26.11;101776.34;103053;1286;73539;-81
2024/01/20 09:04:54;;;;;;;3.30;1.90;;;;;;;20.42;26.07;101770.79;103307;1285;62266;-80
2024/01/20 09:07:20;;;;;;;3.70;2.00;;;;;;;20.42;26.06;101770.44;103209;1289;62575;-80
2024/01/20 09:09:47;;;;;;;2.30;1.60;;;;;;;20.42;25.97;101773.45;103159;1286;63575;-80
2024/01/20 09:12:12;;;;;;;5.00;2.10;;;;;;;20.42;26.01;101773.27;103318;1288;62148;-80
2024/01/20 09:14:38;;;;;;;4.10;1.90;;;;;;;20.42;26.01;101776.31;103397;1283;62235;-80
2024/01/20 09:17:05;;;;;;;3.30;1.70;;;;;;;20.42;26.08;101775.75;103673;1281;63874;-79
2024/01/20 09:19:30;;;;;;;3.60;1.70;;;;;;;20.43;26.05;101774.66;103623;1286;62728;-80
2024/01/20 09:21:56;;;;;;;4.20;1.70;;;;;;;20.43;25.88;101779.45;103519;1283;62170;-80
2024/01/20 09:24:22;;;;;;;3.90;2.00;;;;;;;20.44;25.79;101778.16;103642;1283;63350;-81
2024/01/20 09:26:47;;;;;;;3.40;1.80;;;;;;;20.45;25.91;101778.88;103688;1285;63279;-81
2024/01/20 09:29:13;;;;;;;4.20;2.10;;;;;;;20.44;25.96;101781.75;103587;1283;62797;-79
2024/01/20 09:31:39;;;;;;;3.30;1.70;;;;;;;20.45;25.85;101787.77;103771;1283;62543;-81
2024/01/20 09:34:04;;;;;;;4.30;1.90;;;;;;;20.45;25.87;101792.98;103416;1283;62111;-81
2024/01/20 09:36:30;;;;;;;3.80;1.90;;;;;;;20.45;25.93;101795.82;103369;1282;72484;-80
2024/01/20 09:38:56;;;;;;;4.10;2.10;;;;;;;20.45;25.84;101801.21;103764;1285;62245;-79
2024/01/20 09:41:22;;;;;;;4.10;1.90;;;;;;;20.45;25.87;101808.71;103565;1283;62266;-81
2024/01/20 09:43:48;;;;;;;3.10;1.70;;;;;;;20.46;25.80;101809.03;103532;1283;62168;-80
2024/01/20 09:46:13;;;;;;;4.30;2.20;;;;;;;20.46;25.75;101807.05;103420;1283;63358;-79
2024/01/20 09:48:39;;;;;;;3.50;1.90;;;;;;;20.46;25.81;101804.20;103401;1283;62208;-80
2024/01/20 09:51:06;;;;;;;3.40;2.00;;;;;;;20.47;25.77;101811.30;103325;1283;74995;-80
2024/01/20 09:53:32;;;;;;;3.60;1.90;;;;;;;20.47;25.58;101814.33;103449;1281;62366;-80
2024/01/20 09:55:57;;;;;;;3.40;2.10;;;;;;;20.47;25.72;101816.81;103402;1284;62352;-80
2024/01/20 09:58:24;;;;;;;5.60;2.10;;;;;;;20.47;25.79;101817.89;103414;1288;62178;-81
2024/01/20 10:00:50;;;;;;;3.70;1.90;;;;;;;20.48;25.69;101820.73;103683;1283;62104;-80
2024/01/20 10:03:17;;;;;;;4.20;2.10;;;;;;;20.48;25.76;101821.96;103829;1281;62753;-80
2024/01/20 10:05:42;;;;;;;3.80;2.20;;;;;;;20.48;25.78;101829.66;103393;1281;63275;-80
2024/01/20 10:08:08;;;;;;;4.20;2.10;;;;;;;20.47;25.81;101828.96;103496;1287;62194;-80
2024/01/20 10:10:34;;;;;;;4.10;2.30;;;;;;;20.48;25.66;101830.75;103692;1283;62185;-82
2024/01/20 10:13:00;;;;;;;4.40;2.40;;;;;;;20.48;25.82;101833.58;103510;1283;62235;-80
2024/01/20 10:15:28;;;;;;;5.10;2.10;;;;;;;20.48;25.85;101833.97;103831;1283;62280;-80
2024/01/20 10:17:57;;;;;;;4.80;2.10;;;;;;;20.48;25.81;101835.39;103373;1283;62258;-82
2024/01/20 10:20:34;;;;;;;;;;;;;;;20.48;25.77;101837.36;103289;1283;71584;-80
2024/01/20 10:23:01;;;;;;;4.00;2.10;;;;;;;20.45;25.80;101838.02;103720;1282;76528;-80
2024/01/20 10:25:27;;;;;;;4.40;2.60;;;;;;;20.47;25.81;101834.19;103415;1287;62180;-80
2024/01/20 10:27:53;;;;;;;4.70;2.60;;;;;;;20.48;25.91;101837.91;103386;1283;62274;-80
2024/01/20 10:30:25;;;;;;;5.20;2.20;;;;;;;20.47;25.87;101832.55;103522;1283;73470;-80
2024/01/20 10:32:51;;;;;;;4.40;2.50;;;;;;;20.47;25.75;101829.70;103369;1283;76254;-81
2024/01/20 10:35:16;;;;;;;5.00;2.50;;;;;;;20.48;25.77;101829.67;103563;1283;63252;-80
2024/01/20 10:37:44;;;;;;;4.80;2.70;;;;;;;20.47;25.76;101829.16;103772;1282;62104;-80
2024/01/20 10:40:13;;;;;;;3.70;2.30;;;;;;;20.47;25.68;101831.31;103159;1283;71852;-80
2024/01/20 10:42:44;;;;;;;4.60;2.40;;;;;;;20.47;25.58;101830.21;103387;1283;75168;-80
2024/01/20 10:45:14;;;;;;;5.40;2.70;;;;;;;20.48;25.81;101831.64;103915;1283;62449;-79
2024/01/20 10:47:41;;;;;;;3.90;2.40;;;;;;;20.48;25.75;101835.20;103653;1283;62178;-80
2024/01/20 10:50:08;;;;;;;6.70;2.60;;;;;;;20.48;25.59;101834.31;103529;1286;73385;-80
2024/01/20 10:52:37;;;;;;;4.70;2.70;;;;;;;20.48;25.70;101836.45;103518;1281;74941;-81
2024/01/20 10:55:04;;;;;;;6.00;2.80;;;;;;;20.48;25.55;101835.00;103717;1285;62479;-80
2024/01/20 10:57:30;;;;;;;5.50;2.90;;;;;;;20.49;25.62;101836.59;103418;1283;62187;-81
2024/01/20 10:59:56;;;;;;;6.40;3.10;;;;;;;20.49;25.62;101840.52;103559;1283;62609;-79
2024/01/20 11:02:22;;;;;;;5.60;3.00;;;;;;;20.49;25.71;101843.21;103595;1282;62210;-80
2024/01/20 11:04:48;;;;;;;7.30;3.30;;;;;;;20.49;25.68;101845.33;103648;1283;62113;-82
2024/01/20 11:07:23;;;;;;;5.40;2.90;;;;;;;20.50;25.60;101840.13;103742;1283;62190;-81
2024/01/20 11:09:58;;;;;;;5.30;2.80;;;;;;;20.50;25.53;101842.08;103586;1283;73176;-80
2024/01/20 11:12:25;;;;;;;5.60;3.00;;;;;;;20.50;25.58;101842.95;103592;1284;75183;-80